Accueil
METAR-TAF:

METAR-TAF

Aéroports :

St Athan, Pays de Galles

latitude: 51-24N, longitude: 003-26W, altitude: 50 m

Observation

Le bulletin a été fait il y a 4 heures et 8 minutes, à 18:50 UTC
Vent 6 kt de sud/sud-est
Température 15°C
Humidité 100%
Pression 1019 hPa
Visibilité: 3700 m
faible bruine

METAR: EGDX 201850Z AUTO 15006KT 3700 -DZ BKN004/// BKN011/// 15/15 Q1019

Heure: 23:58 (22:58 UTC)

Prévision

Le bulletin a été fait il y a 9 heures et 12 minutes, à 13:46 UTC
Prévision valable du 20 à 15 UTC au 20 à 18 UTC
Vent 6 kt de sud
Visibilité 10 km ou plus
Nuages fragmentés à une hauteur de 1500 ft
Evoluant progressivement
du 20 à 15 UTC au 20 à 16 UTC
Nuages fragmentés à une hauteur de 1000 ft
Probabilité 40% :
Temporairement
du 20 à 15 UTC au 20 à 18 UTC
Visibilité: 6000 m
Nuages épars à une hauteur de 600 ft
pluie

TAF: EGDX 201346Z 2015/2018 18006KT 9999 BKN015 BECMG 2015/2016 BKN010 PROB40 TEMPO 2015/2018 6000 RA SCT006

Observations et prévisions météorologiques de plus de 4000 aéroports (messages METAR et TAF).

Les stations disponibles sont représentées par des disques jaunes et rouges sur la carte.

Passer la souris dessus pour voir le nom de la station.

Cliquer dessus pour voir les observations et prévisions météorologiques.

Pour changer de carte: cliquez sur les boutons verts avec une croix noire pour zoomer, sur le bouton vert avec un tiret pour effectuer un zoom arrière, ou sur les flèches vertes pour les cartes adjacentes.


METAR-TAF: